createdAt,value
2017-07-26T06:08:05.268Z,21.1
2017-07-26T06:09:07.692Z,21.2
2017-07-26T06:10:10.149Z,21.2
2017-07-26T06:11:12.603Z,21.3
2017-07-26T06:12:15.145Z,21.3
2017-07-26T06:13:17.592Z,21.4
2017-07-26T06:14:20.055Z,21.5
2017-07-26T06:15:22.526Z,21.6
2017-07-26T06:45:38.855Z,22.3
2017-07-26T06:46:41.302Z,22.3
2017-07-26T06:50:59.155Z,22.4
2017-07-26T06:52:01.609Z,22.4
2017-07-26T06:53:04.083Z,22.4
2017-07-26T06:54:06.553Z,22.4
2017-07-26T06:55:09.109Z,22.4
2017-07-26T06:56:11.559Z,22.4
2017-07-26T07:02:20.112Z,16.5
2017-07-26T07:03:22.554Z,16.1
2017-07-26T07:04:25.021Z,15.7
2017-07-26T07:05:32.419Z,15.3
2017-07-26T07:06:34.959Z,15.1
2017-07-26T07:07:37.427Z,14.9
2017-07-26T07:08:39.877Z,14.9
2017-07-26T07:09:42.333Z,14.7
2017-07-26T07:10:44.804Z,14.6
2017-07-26T07:11:47.344Z,14.6
2017-07-26T07:12:49.805Z,14.5
2017-07-26T07:13:52.268Z,14.5
2017-07-26T07:14:54.723Z,14.5
2017-07-26T07:15:57.179Z,14.6
2017-07-26T07:16:59.716Z,14.5
2017-07-26T07:18:02.166Z,14.6
2017-07-26T07:19:04.626Z,14.6
2017-07-26T07:20:07.086Z,14.5
2017-07-26T07:21:09.548Z,14.6
2017-07-26T07:22:12.080Z,14.6
2017-07-26T07:23:14.522Z,14.6
2017-07-26T07:24:16.987Z,14.5
2017-07-26T07:25:19.428Z,14.5
2017-07-26T07:26:21.885Z,14.5
2017-07-26T07:27:24.416Z,14.5
2017-07-26T07:28:26.878Z,14.4
2017-07-26T07:29:29.350Z,14.5
2017-07-26T07:30:31.810Z,14.4
2017-07-26T07:31:34.281Z,14.3
2017-07-26T07:32:36.810Z,14.4
2017-07-26T07:33:39.260Z,14.3
2017-07-26T07:34:41.734Z,14.3
2017-07-26T07:35:44.189Z,14.4
2017-07-26T07:36:46.655Z,14.3
2017-07-26T07:37:49.174Z,14.3
2017-07-26T07:38:51.646Z,14.3
2017-07-26T07:39:54.114Z,14.2
2017-07-26T07:40:56.556Z,14.2
2017-07-26T07:41:58.993Z,14.3
2017-07-26T07:43:01.552Z,14.3
2017-07-26T07:44:04.004Z,14.2
2017-07-26T07:45:06.484Z,14.3
2017-07-26T07:46:08.962Z,14.2
2017-07-26T07:47:11.428Z,14.3
2017-07-26T07:48:13.958Z,14.2
2017-07-26T07:49:16.437Z,14.3
2017-07-26T07:50:18.900Z,14.3
2017-07-26T07:51:21.371Z,14.3
2017-07-26T07:52:23.823Z,14.3
2017-07-26T07:53:26.340Z,14.4
2017-07-26T07:54:28.808Z,14.3
2017-07-26T07:55:31.261Z,14.3
2017-07-26T07:56:33.733Z,14.2
2017-07-26T07:57:36.196Z,14.3
2017-07-26T07:58:38.720Z,14.3
2017-07-26T07:59:41.188Z,14.3
2017-07-26T08:00:43.811Z,14.3
2017-07-26T08:01:46.264Z,14.5
2017-07-26T08:02:48.751Z,14.4
2017-07-26T08:03:51.288Z,14.3
2017-07-26T08:04:53.757Z,14.3
2017-07-26T08:05:56.218Z,14.4
2017-07-26T08:06:58.683Z,14.3
2017-07-26T08:08:01.157Z,14.3
2017-07-26T08:09:03.681Z,14.4
2017-07-26T08:10:06.133Z,14.4
2017-07-26T08:11:08.599Z,14.4
2017-07-26T08:12:11.058Z,14.3
2017-07-26T08:13:13.502Z,14.3
2017-07-26T08:14:16.029Z,14.3
2017-07-26T08:15:18.470Z,14.4
2017-07-26T08:16:20.916Z,14.3
2017-07-26T08:17:23.366Z,14.5
2017-07-26T08:18:25.834Z,14.4
2017-07-26T08:19:28.368Z,14.4
2017-07-26T08:20:30.833Z,14.3
2017-07-26T08:21:33.285Z,14.4
2017-07-26T08:22:35.754Z,14.4
2017-07-26T08:23:38.225Z,14.3
2017-07-26T08:24:40.773Z,14.3
2017-07-26T08:25:43.225Z,14.3
2017-07-26T08:26:45.696Z,14.3
2017-07-26T08:27:48.154Z,14.4
2017-07-26T08:28:50.633Z,14.3
2017-07-26T08:29:53.163Z,14.4
2017-07-26T08:30:55.616Z,14.3
2017-07-26T08:31:58.068Z,14.4
2017-07-26T08:33:00.531Z,14.4
2017-07-26T08:34:03.135Z,14.4
2017-07-26T08:35:05.666Z,14.4
2017-07-26T08:36:08.126Z,14.4
2017-07-26T08:37:10.610Z,14.3
2017-07-26T08:38:13.060Z,14.4
2017-07-26T08:39:15.518Z,14.3
2017-07-26T08:40:18.037Z,14.3
2017-07-26T08:41:20.511Z,14.3
2017-07-26T08:42:22.969Z,14.4
2017-07-26T08:43:25.424Z,14.4
2017-07-26T08:44:27.895Z,14.4
2017-07-26T08:45:30.411Z,14.4
2017-07-26T08:46:32.872Z,14.4
2017-07-26T08:47:35.338Z,14.4
2017-07-26T08:48:37.818Z,14.5
2017-07-26T08:49:40.294Z,14.5
2017-07-26T08:50:42.839Z,14.5
2017-07-26T08:51:45.310Z,14.6
2017-07-26T08:52:47.896Z,14.6
2017-07-26T08:53:50.355Z,14.5
2017-07-26T08:54:52.840Z,14.5
2017-07-26T08:55:55.383Z,14.5
2017-07-26T08:56:57.836Z,14.5
2017-07-26T08:58:00.299Z,14.6
2017-07-26T08:59:02.751Z,14.6
2017-07-26T09:00:05.210Z,14.6
2017-07-26T09:01:07.747Z,14.5
2017-07-26T09:02:10.237Z,14.6
2017-07-26T09:03:12.719Z,14.7
2017-07-26T09:04:15.192Z,14.6
2017-07-26T09:05:17.666Z,14.6
2017-07-26T09:06:20.222Z,14.7
2017-07-26T09:07:22.696Z,14.7
2017-07-26T09:08:25.178Z,14.7
2017-07-26T09:09:28.246Z,14.8
2017-07-26T09:10:30.711Z,14.7
2017-07-26T09:11:33.241Z,14.7
2017-07-26T09:12:35.765Z,14.7
2017-07-26T09:13:38.214Z,14.7
2017-07-26T09:14:40.725Z,14.8
2017-07-26T09:15:43.213Z,14.8
2017-07-26T09:16:45.751Z,14.7
2017-07-26T09:17:48.290Z,14.9
2017-07-26T09:18:50.764Z,14.9
2017-07-26T09:19:53.238Z,15.0
2017-07-26T09:20:55.797Z,15.0
2017-07-26T09:21:58.313Z,15.0
2017-07-26T09:23:00.789Z,15.1
2017-07-26T09:24:03.250Z,14.9
2017-07-26T09:25:05.846Z,15.1
2017-07-26T09:26:08.404Z,15.2
2017-07-26T09:27:10.960Z,15.2
2017-07-26T09:28:13.439Z,15.2
2017-07-26T09:29:15.913Z,15.2
2017-07-26T09:30:18.362Z,15.3
2017-07-26T09:31:20.845Z,15.3
2017-07-26T09:32:23.409Z,15.2
2017-07-26T09:33:25.886Z,15.2
2017-07-26T09:34:28.375Z,15.2
2017-07-26T09:35:30.854Z,15.4
2017-07-26T09:36:33.312Z,15.3
2017-07-26T09:37:35.866Z,15.4
2017-07-26T09:38:38.338Z,15.4
2017-07-26T09:39:40.816Z,15.5
2017-07-26T09:40:43.282Z,15.4
2017-07-26T09:41:45.729Z,15.5
2017-07-26T09:42:48.256Z,15.5
2017-07-26T09:43:50.722Z,15.5
2017-07-26T09:44:53.188Z,15.6
2017-07-26T09:45:55.659Z,15.7
2017-07-26T09:46:58.112Z,15.6
2017-07-26T09:48:00.654Z,15.6
2017-07-26T09:49:03.105Z,15.6
2017-07-26T09:50:05.576Z,15.5
2017-07-26T09:51:08.048Z,15.6
2017-07-26T09:52:10.513Z,15.6
2017-07-26T09:53:13.049Z,15.6
2017-07-26T09:54:15.500Z,15.5
2017-07-26T09:55:17.960Z,15.5
2017-07-26T09:56:20.419Z,15.5
2017-07-26T09:57:22.894Z,15.4
2017-07-26T09:58:25.430Z,15.5
2017-07-26T09:59:27.920Z,15.5
2017-07-26T10:00:30.373Z,15.5
2017-07-26T10:01:32.823Z,15.4
2017-07-26T10:02:35.286Z,15.4
2017-07-26T10:03:37.831Z,15.5
2017-07-26T10:04:40.287Z,15.4
2017-07-26T10:05:42.745Z,15.3
2017-07-26T10:06:45.227Z,15.5
2017-07-26T10:07:48.625Z,15.5
2017-07-26T10:08:51.159Z,15.5
2017-07-26T10:09:53.628Z,15.5
2017-07-26T10:10:56.097Z,15.5
2017-07-26T10:11:58.557Z,15.3
2017-07-26T10:13:01.016Z,15.4
2017-07-26T10:14:03.536Z,15.4
2017-07-26T10:15:05.979Z,15.4
2017-07-26T10:16:08.440Z,15.3
2017-07-26T10:17:10.898Z,15.4
2017-07-26T10:18:13.361Z,15.3
2017-07-26T10:19:15.895Z,15.3
2017-07-26T10:20:18.353Z,15.2
2017-07-26T10:21:20.803Z,15.2
2017-07-26T10:22:23.261Z,15.2
2017-07-26T10:23:25.716Z,15.3
2017-07-26T10:24:28.255Z,15.3
2017-07-26T10:25:30.755Z,15.4
2017-07-26T10:26:33.210Z,15.3
2017-07-26T10:27:35.662Z,15.4
2017-07-26T10:28:38.133Z,15.3
2017-07-26T10:29:40.665Z,15.3
2017-07-26T10:30:43.112Z,15.4
2017-07-26T10:31:45.573Z,15.4
2017-07-26T10:32:48.045Z,15.3
2017-07-26T10:33:50.540Z,15.4
2017-07-26T10:34:53.082Z,15.3
2017-07-26T10:35:55.522Z,15.3
2017-07-26T10:36:57.993Z,15.3
2017-07-26T10:38:00.456Z,15.4
2017-07-26T10:39:02.906Z,15.4
2017-07-26T10:40:05.449Z,15.3
2017-07-26T10:41:07.917Z,15.3
2017-07-26T10:42:10.402Z,15.2
2017-07-26T10:43:12.887Z,15.2
2017-07-26T10:44:15.342Z,15.2
2017-07-26T10:45:17.864Z,15.2
2017-07-26T10:46:20.316Z,15.2
2017-07-26T10:47:22.792Z,15.1
2017-07-26T10:48:25.260Z,15.1
2017-07-26T10:49:27.745Z,15.1
2017-07-26T10:50:30.267Z,15.1
2017-07-26T10:51:32.709Z,15.1
2017-07-26T10:52:35.222Z,15.2
2017-07-26T10:53:37.688Z,15.2
2017-07-26T10:54:40.162Z,15.2
2017-07-26T10:55:42.675Z,15.4
2017-07-26T10:56:45.134Z,15.4
2017-07-26T10:57:47.602Z,15.4
2017-07-26T10:58:50.068Z,15.5
2017-07-26T10:59:52.544Z,15.4
2017-07-26T11:00:55.066Z,15.5
2017-07-26T11:01:57.529Z,15.5
2017-07-26T11:03:00.008Z,15.5
2017-07-26T11:04:02.467Z,15.5
2017-07-26T11:05:04.927Z,15.6
2017-07-26T11:06:07.473Z,15.6
2017-07-26T11:07:09.922Z,15.6
2017-07-26T11:08:12.397Z,15.6
2017-07-26T11:09:14.865Z,15.6
2017-07-26T11:10:17.323Z,15.4
2017-07-26T11:11:19.852Z,15.5
2017-07-26T11:12:22.302Z,15.5
2017-07-26T11:13:24.764Z,15.5
2017-07-26T11:14:27.229Z,15.5
2017-07-26T11:15:29.698Z,15.5
2017-07-26T11:16:32.229Z,15.5
2017-07-26T11:17:34.703Z,15.6
2017-07-26T11:18:37.166Z,15.6
2017-07-26T11:19:39.699Z,15.6
2017-07-26T11:20:42.144Z,15.6
2017-07-26T11:21:44.689Z,15.6
2017-07-26T11:22:47.160Z,15.6
2017-07-26T11:23:49.623Z,15.6
2017-07-26T11:24:52.110Z,15.6
2017-07-26T11:25:54.568Z,15.5
2017-07-26T11:26:57.111Z,15.6
2017-07-26T11:27:59.576Z,15.7
2017-07-26T11:29:02.048Z,15.7
2017-07-26T11:30:04.530Z,15.8
2017-07-26T11:31:06.998Z,15.8
2017-07-26T11:32:09.544Z,16.0
2017-07-26T11:33:12.012Z,15.9
2017-07-26T11:34:14.464Z,15.9
2017-07-26T11:35:16.923Z,15.8
2017-07-26T11:36:19.396Z,15.8
2017-07-26T11:37:21.913Z,15.9
2017-07-26T11:38:24.387Z,15.9
2017-07-26T11:39:26.869Z,15.8
2017-07-26T11:40:29.324Z,15.8
2017-07-26T11:41:31.800Z,15.8
2017-07-26T11:42:34.324Z,15.8
2017-07-26T11:43:36.785Z,15.8
2017-07-26T11:44:39.261Z,15.8
2017-07-26T11:45:41.722Z,15.9
2017-07-26T11:46:44.180Z,15.9
2017-07-26T11:47:46.699Z,15.9
2017-07-26T11:48:49.179Z,16.0
2017-07-26T11:49:51.641Z,15.9
2017-07-26T11:50:54.121Z,15.8
2017-07-26T11:51:56.595Z,15.9
2017-07-26T11:52:59.126Z,15.8
2017-07-26T11:54:01.617Z,15.9
2017-07-26T11:55:04.084Z,15.8
2017-07-26T11:56:06.548Z,15.8
2017-07-26T11:57:09.019Z,15.9
2017-07-26T11:58:11.537Z,16.0
2017-07-26T11:59:14.003Z,16.0
2017-07-26T12:00:16.483Z,16.1
2017-07-26T12:01:18.946Z,16.0
2017-07-26T12:02:21.439Z,15.9
2017-07-26T12:03:23.998Z,15.9
2017-07-26T12:04:26.468Z,16.0
2017-07-26T12:05:28.928Z,15.9
2017-07-26T12:06:31.404Z,16.0
2017-07-26T12:07:33.869Z,16.0
2017-07-26T12:08:36.429Z,16.0
2017-07-26T12:09:38.895Z,16.0
2017-07-26T12:10:41.365Z,16.0
2017-07-26T12:11:43.825Z,16.0
2017-07-26T12:12:46.294Z,16.0
2017-07-26T12:13:48.826Z,16.0
2017-07-26T12:14:51.311Z,16.0
2017-07-26T12:15:53.755Z,16.0
2017-07-26T12:16:56.205Z,16.0
2017-07-26T12:17:58.676Z,16.0
2017-07-26T12:19:01.222Z,16.0
2017-07-26T12:20:03.698Z,16.0
2017-07-26T12:21:06.151Z,15.9
2017-07-26T12:22:08.630Z,16.0
2017-07-26T12:23:11.799Z,16.0
2017-07-26T12:24:14.317Z,16.1
2017-07-26T12:25:16.789Z,16.0
2017-07-26T12:26:19.251Z,16.0
2017-07-26T12:27:21.731Z,16.1
2017-07-26T12:28:24.194Z,16.1
2017-07-26T12:29:26.742Z,16.0
2017-07-26T12:30:29.200Z,16.1
2017-07-26T12:31:31.642Z,16.2
2017-07-26T12:32:34.118Z,16.2
2017-07-26T12:33:36.597Z,16.2
2017-07-26T12:34:39.121Z,16.2
2017-07-26T12:35:41.601Z,16.2
2017-07-26T12:36:44.069Z,16.2
2017-07-26T12:37:46.565Z,16.1
2017-07-26T12:38:49.030Z,16.0
2017-07-26T12:39:51.557Z,16.1
2017-07-26T12:40:54.039Z,16.1
2017-07-26T12:41:56.489Z,16.0
2017-07-26T12:42:58.965Z,16.0
2017-07-26T12:44:01.450Z,16.0
2017-07-26T12:45:03.993Z,15.9
2017-07-26T12:46:06.448Z,16.0
2017-07-26T12:47:08.903Z,16.0
2017-07-26T12:48:11.372Z,16.0
2017-07-26T12:49:13.854Z,16.0
2017-07-26T12:50:16.386Z,16.0
2017-07-26T12:51:18.857Z,16.0
2017-07-26T12:52:21.333Z,16.0
2017-07-26T12:53:23.835Z,16.0
2017-07-26T12:54:26.303Z,16.0
2017-07-26T12:55:28.869Z,16.0
2017-07-26T12:56:31.318Z,16.0
2017-07-26T12:57:33.780Z,16.2
2017-07-26T12:58:36.253Z,16.2
2017-07-26T12:59:38.730Z,16.1
2017-07-26T13:00:41.266Z,16.2
2017-07-26T13:01:43.738Z,16.0
2017-07-26T13:02:46.190Z,16.1
2017-07-26T13:03:48.657Z,16.1
2017-07-26T13:04:51.125Z,16.1
2017-07-26T13:05:53.662Z,16.1
2017-07-26T13:06:56.134Z,16.0
2017-07-26T13:07:58.581Z,16.0
2017-07-26T13:09:01.037Z,16.0
2017-07-26T13:10:03.497Z,16.0
2017-07-26T13:11:06.043Z,16.0
2017-07-26T13:12:08.477Z,16.0
2017-07-26T13:13:10.956Z,16.0
2017-07-26T13:14:13.398Z,16.0
2017-07-26T13:15:15.867Z,16.0
2017-07-26T13:16:18.396Z,16.0
2017-07-26T13:17:20.870Z,16.0
2017-07-26T13:18:23.320Z,15.9
2017-07-26T13:19:25.783Z,16.0
2017-07-26T13:20:28.800Z,16.0
2017-07-26T13:21:31.345Z,16.2
2017-07-26T13:22:33.825Z,16.3
2017-07-26T13:23:36.287Z,16.3
2017-07-26T13:24:38.762Z,16.3
2017-07-26T13:25:41.236Z,16.3
2017-07-26T13:26:43.770Z,16.3
2017-07-26T13:27:46.241Z,16.3
2017-07-26T13:28:48.686Z,16.3
2017-07-26T13:29:51.149Z,16.4
2017-07-26T13:30:53.634Z,16.4
2017-07-26T13:31:56.185Z,16.5
2017-07-26T13:32:58.650Z,16.5
2017-07-26T13:34:01.119Z,16.6
2017-07-26T13:35:03.604Z,16.6
2017-07-26T13:36:06.064Z,16.6
2017-07-26T13:37:08.629Z,16.6
2017-07-26T13:38:11.097Z,16.7
2017-07-26T13:39:13.575Z,16.7
2017-07-26T13:40:16.032Z,16.7
2017-07-26T13:41:18.484Z,16.6
2017-07-26T13:42:21.032Z,16.7
2017-07-26T13:43:23.511Z,16.7
2017-07-26T13:44:25.977Z,16.7
2017-07-26T13:45:28.429Z,16.7
2017-07-26T13:46:30.885Z,16.8
2017-07-26T13:47:33.411Z,16.8
2017-07-26T13:48:35.864Z,16.8
2017-07-26T13:49:38.338Z,16.7
2017-07-26T13:50:40.812Z,16.8
2017-07-26T13:51:43.290Z,16.7
2017-07-26T13:52:45.804Z,16.9
2017-07-26T13:53:48.268Z,16.9
2017-07-26T13:54:50.726Z,16.9
2017-07-26T13:55:53.178Z,16.9
2017-07-26T13:56:55.650Z,16.9
2017-07-26T13:57:58.174Z,16.9
2017-07-26T13:59:00.624Z,16.9
2017-07-26T14:00:03.093Z,16.9
2017-07-26T14:01:05.556Z,16.9
2017-07-26T14:02:08.035Z,16.9
2017-07-26T14:03:10.580Z,16.7
2017-07-26T14:04:13.046Z,16.6
2017-07-26T14:05:15.501Z,16.5
2017-07-26T14:06:17.975Z,16.7
2017-07-26T14:07:20.415Z,16.5
2017-07-26T14:08:22.954Z,16.6
2017-07-26T14:09:25.423Z,16.6
2017-07-26T14:10:27.887Z,16.6
2017-07-26T14:11:30.366Z,16.6
2017-07-26T14:12:32.812Z,16.7
2017-07-26T14:13:35.335Z,16.6
2017-07-26T14:14:37.795Z,16.7
2017-07-26T14:15:40.258Z,16.8
2017-07-26T14:16:42.730Z,16.8
2017-07-26T14:17:45.216Z,16.8
2017-07-26T14:18:47.770Z,16.9
2017-07-26T14:19:50.219Z,16.9
2017-07-26T14:20:52.773Z,16.9
2017-07-26T14:21:55.278Z,16.8
2017-07-26T14:22:57.742Z,16.9
2017-07-26T14:24:00.274Z,16.8
2017-07-26T14:25:02.782Z,16.8
2017-07-26T14:26:05.270Z,16.7
2017-07-26T14:27:07.736Z,16.7
2017-07-26T14:28:10.209Z,16.5
2017-07-26T14:29:12.731Z,16.4
2017-07-26T14:30:15.214Z,16.5
2017-07-26T14:31:17.687Z,16.5
2017-07-26T14:32:20.163Z,16.5
2017-07-26T14:33:22.629Z,16.5
2017-07-26T14:34:25.161Z,16.5
2017-07-26T14:35:27.659Z,16.6
2017-07-26T14:36:30.117Z,16.6
2017-07-26T14:37:32.599Z,16.7
2017-07-26T14:38:35.058Z,16.8
2017-07-26T14:39:37.625Z,16.7
2017-07-26T14:40:40.107Z,16.7
2017-07-26T14:41:42.584Z,16.7
2017-07-26T14:42:45.058Z,16.7
2017-07-26T14:43:47.529Z,16.7
2017-07-26T14:44:50.075Z,16.8
2017-07-26T14:45:52.519Z,16.8
2017-07-26T14:46:54.982Z,16.9
2017-07-26T14:47:57.448Z,16.9
2017-07-26T14:48:59.907Z,16.8
2017-07-26T14:50:02.425Z,16.9
2017-07-26T14:51:04.875Z,16.8
2017-07-26T14:52:07.320Z,16.8
2017-07-26T14:53:09.775Z,16.8
2017-07-26T14:54:12.236Z,16.8
2017-07-26T14:55:14.797Z,16.7
2017-07-26T14:56:17.268Z,16.9
2017-07-26T14:57:19.843Z,16.7
2017-07-26T14:58:22.317Z,16.9
2017-07-26T14:59:24.783Z,17.0
2017-07-26T15:00:27.320Z,17.0
2017-07-26T15:01:29.807Z,17.0
2017-07-26T15:02:32.264Z,17.1
2017-07-26T15:03:34.730Z,17.1
2017-07-26T15:04:37.217Z,17.0
2017-07-26T15:05:39.747Z,17.0
2017-07-26T15:06:42.211Z,17.0
2017-07-26T15:07:44.689Z,16.8
2017-07-26T15:08:47.162Z,16.9
2017-07-26T15:09:49.627Z,16.9
2017-07-26T15:10:52.167Z,16.9
2017-07-26T15:11:54.640Z,16.8
2017-07-26T15:12:57.093Z,16.7
2017-07-26T15:13:59.557Z,16.7
2017-07-26T15:15:02.033Z,16.6
2017-07-26T15:16:04.567Z,16.5
2017-07-26T15:17:08.014Z,16.6
2017-07-26T15:18:10.480Z,16.4
2017-07-26T15:19:12.956Z,16.3
2017-07-26T15:20:15.427Z,16.3
2017-07-26T15:21:17.938Z,16.3
2017-07-26T15:22:20.418Z,16.3
2017-07-26T15:23:22.893Z,16.2
2017-07-26T15:24:25.367Z,16.2
2017-07-26T15:25:27.842Z,16.1
2017-07-26T15:26:30.385Z,16.0
2017-07-26T15:27:32.835Z,16.1
2017-07-26T15:28:35.311Z,16.0
2017-07-26T15:29:37.781Z,16.0
2017-07-26T15:30:40.261Z,16.0
2017-07-26T15:31:42.789Z,16.0
2017-07-26T15:32:45.249Z,16.2
2017-07-26T15:33:47.734Z,16.0
2017-07-26T15:34:50.189Z,16.2
2017-07-26T15:35:52.671Z,16.2
2017-07-26T15:36:55.200Z,16.2
2017-07-26T15:37:57.665Z,16.2
2017-07-26T15:39:00.126Z,16.2
2017-07-26T15:40:02.603Z,16.2
2017-07-26T15:41:05.066Z,16.2
2017-07-26T15:42:07.596Z,16.2
2017-07-26T15:43:10.048Z,16.2
2017-07-26T15:44:12.512Z,16.3
2017-07-26T15:45:14.977Z,16.4
2017-07-26T15:46:17.465Z,16.3
2017-07-26T15:47:19.988Z,16.3
2017-07-26T15:48:22.460Z,16.3
2017-07-26T15:49:24.948Z,16.3
2017-07-26T15:50:27.440Z,16.3
2017-07-26T15:51:29.921Z,16.3
2017-07-26T15:52:32.443Z,16.2
2017-07-26T15:53:34.909Z,16.3
2017-07-26T15:54:37.383Z,16.2
2017-07-26T15:55:39.853Z,16.3
2017-07-26T15:56:42.317Z,16.2
2017-07-26T15:57:44.849Z,16.2
2017-07-26T15:58:47.331Z,16.3
2017-07-26T15:59:49.787Z,16.2
2017-07-26T16:00:52.252Z,16.2
2017-07-26T16:01:54.734Z,16.2
2017-07-26T16:02:57.269Z,16.2
2017-07-26T16:03:59.727Z,16.2
2017-07-26T16:05:02.187Z,16.3
2017-07-26T16:06:04.632Z,16.4
2017-07-26T16:07:07.111Z,16.5
2017-07-26T16:08:09.656Z,16.6
2017-07-26T16:09:12.123Z,16.8
2017-07-26T16:10:14.582Z,17.0
2017-07-26T16:11:17.049Z,17.1
2017-07-26T16:12:19.504Z,17.2
2017-07-26T16:13:22.039Z,17.4
2017-07-26T16:14:24.521Z,17.5
2017-07-26T16:15:26.990Z,17.6
2017-07-26T16:16:29.500Z,17.7
2017-07-26T16:17:31.972Z,17.7
2017-07-26T16:18:34.503Z,17.7
2017-07-26T16:19:36.977Z,17.7
2017-07-26T16:20:39.446Z,17.7
2017-07-26T16:21:41.915Z,17.5
2017-07-26T16:22:44.394Z,17.7
2017-07-26T16:23:46.919Z,17.7
2017-07-26T16:24:49.383Z,17.7
2017-07-26T16:25:51.828Z,17.7
2017-07-26T16:26:54.302Z,17.6
2017-07-26T16:27:56.758Z,17.6
2017-07-26T16:28:59.295Z,17.5
2017-07-26T16:30:01.753Z,17.6
2017-07-26T16:31:04.216Z,17.4
2017-07-26T16:32:06.688Z,17.5
2017-07-26T16:33:09.135Z,17.4
2017-07-26T16:34:11.669Z,17.4
2017-07-26T16:35:14.122Z,17.3
2017-07-26T16:36:16.588Z,17.2
2017-07-26T16:37:19.071Z,17.1
2017-07-26T16:38:21.555Z,17.1
2017-07-26T16:39:24.079Z,16.9
2017-07-26T16:40:26.558Z,16.7
2017-07-26T16:41:29.034Z,16.6
2017-07-26T16:42:31.513Z,16.6
2017-07-26T16:43:33.990Z,16.4
2017-07-26T16:44:36.504Z,16.4
2017-07-26T16:45:38.988Z,16.4
2017-07-26T16:46:41.461Z,16.3
2017-07-26T16:47:43.930Z,16.4
2017-07-26T16:48:46.388Z,16.4
2017-07-26T16:49:48.932Z,16.4
2017-07-26T16:50:51.406Z,16.6
2017-07-26T16:51:53.864Z,16.6
2017-07-26T16:52:56.318Z,16.7
2017-07-26T16:53:58.802Z,16.7
2017-07-26T16:55:01.441Z,16.7
2017-07-26T16:56:04.055Z,16.8
2017-07-26T16:57:06.530Z,16.9
2017-07-26T16:58:08.998Z,17.2
2017-07-26T16:59:11.482Z,17.3
2017-07-26T17:00:14.097Z,17.4
2017-07-26T17:01:16.571Z,17.6
2017-07-26T17:02:19.020Z,17.8
2017-07-26T17:03:21.483Z,17.9
2017-07-26T17:04:23.962Z,18.1
2017-07-26T17:05:26.516Z,18.2
2017-07-26T17:06:28.974Z,18.3
2017-07-26T17:07:31.447Z,18.5
2017-07-26T17:08:33.926Z,18.5
2017-07-26T17:09:36.400Z,18.6
2017-07-26T17:10:38.956Z,18.6
2017-07-26T17:11:41.415Z,18.6
2017-07-26T17:12:43.870Z,18.6
2017-07-26T17:13:46.336Z,18.6
2017-07-26T17:14:48.791Z,18.7
2017-07-26T17:15:51.323Z,18.7
2017-07-26T17:16:53.787Z,18.7
2017-07-26T17:17:56.250Z,18.8
2017-07-26T17:18:58.715Z,18.8
2017-07-26T17:20:01.202Z,18.8
2017-07-26T17:21:03.743Z,18.8
2017-07-26T17:22:06.206Z,18.7
2017-07-26T17:23:08.692Z,18.6
2017-07-26T17:24:11.175Z,18.7
2017-07-26T17:25:13.643Z,18.6
2017-07-26T17:26:16.162Z,18.5
2017-07-26T17:27:18.625Z,18.6
2017-07-26T17:28:21.091Z,18.5
2017-07-26T17:29:23.668Z,18.5
2017-07-26T17:30:26.118Z,18.5
2017-07-26T17:31:28.653Z,18.4
2017-07-26T17:32:31.138Z,18.3
2017-07-26T17:33:33.624Z,18.2
2017-07-26T17:34:36.110Z,18.1
2017-07-26T17:35:38.580Z,18.1
2017-07-26T17:36:41.144Z,18.0
2017-07-26T17:37:43.629Z,18.1
2017-07-26T17:38:46.110Z,18.1
2017-07-26T17:39:48.603Z,18.0
2017-07-26T17:40:51.098Z,18.0
2017-07-26T17:41:53.680Z,17.9
2017-07-26T17:42:56.128Z,18.0
2017-07-26T17:43:58.604Z,17.8
2017-07-26T17:45:01.110Z,17.9
2017-07-26T17:46:03.605Z,17.8
2017-07-26T17:47:06.148Z,17.7
2017-07-26T17:48:08.635Z,17.7
2017-07-26T17:49:11.109Z,17.7
2017-07-26T17:50:13.595Z,17.5
2017-07-26T17:51:16.064Z,17.5
2017-07-26T17:52:18.612Z,17.4
2017-07-26T17:53:21.076Z,17.3
2017-07-26T17:54:23.558Z,17.4
2017-07-26T17:55:26.027Z,17.4
2017-07-26T17:56:28.585Z,17.5
2017-07-26T17:57:31.132Z,17.5
2017-07-26T17:58:33.628Z,17.5
2017-07-26T17:59:36.096Z,17.4
2017-07-26T18:00:38.583Z,17.3
2017-07-26T18:01:41.028Z,17.2
2017-07-26T18:02:43.589Z,17.3
2017-07-26T18:03:46.042Z,17.4
2017-07-26T18:04:48.510Z,17.3
2017-07-26T18:05:51.004Z,17.3
2017-07-26T18:06:53.472Z,17.2
2017-07-26T18:07:56.015Z,17.3
2017-07-26T18:08:58.490Z,17.4
2017-07-26T18:10:00.956Z,17.3
2017-07-26T18:11:03.396Z,17.3
2017-07-26T18:12:05.860Z,17.2
2017-07-26T18:13:08.407Z,17.3
2017-07-26T18:14:10.860Z,17.1
2017-07-26T18:15:13.326Z,17.0
2017-07-26T18:16:15.778Z,17.0
2017-07-26T18:17:18.255Z,16.9
2017-07-26T18:18:20.771Z,16.7
2017-07-26T18:19:23.250Z,16.6
2017-07-26T18:20:25.706Z,16.4
2017-07-26T18:21:28.197Z,16.4
2017-07-26T18:22:30.645Z,16.3
2017-07-26T18:23:33.164Z,16.3
2017-07-26T18:24:35.651Z,16.3
2017-07-26T18:25:38.109Z,16.2
2017-07-26T18:26:40.584Z,16.2
2017-07-26T18:27:43.051Z,16.1
2017-07-26T18:28:45.618Z,16.1
2017-07-26T18:29:48.098Z,16.0
2017-07-26T18:30:50.581Z,16.0
2017-07-26T18:31:53.047Z,16.0
2017-07-26T18:32:55.484Z,15.9
2017-07-26T18:33:58.022Z,16.0
2017-07-26T18:35:00.509Z,16.0
2017-07-26T18:36:02.974Z,16.1
2017-07-26T18:37:05.541Z,16.2
2017-07-26T18:38:08.017Z,16.1
2017-07-26T18:39:10.793Z,16.2
2017-07-26T18:40:13.174Z,16.2
2017-07-26T18:41:15.664Z,16.1
2017-07-26T18:42:18.145Z,16.0
2017-07-26T18:43:20.601Z,16.1
2017-07-26T18:44:23.124Z,16.1
2017-07-26T18:45:25.594Z,16.2
2017-07-26T18:46:28.052Z,16.2
2017-07-26T18:47:30.517Z,16.2
2017-07-26T18:48:32.992Z,16.0
2017-07-26T18:49:35.516Z,16.0
2017-07-26T18:50:37.972Z,15.9
2017-07-26T18:51:40.448Z,15.8
2017-07-26T18:52:42.898Z,15.8
2017-07-26T18:53:45.350Z,15.7
2017-07-26T18:54:47.901Z,15.6
2017-07-26T18:55:50.370Z,15.6
2017-07-26T18:56:52.836Z,15.6
2017-07-26T18:57:55.328Z,15.5
2017-07-26T18:58:57.799Z,15.4
2017-07-26T19:00:00.350Z,15.4
2017-07-26T19:01:02.813Z,15.3
2017-07-26T19:02:11.091Z,15.3
2017-07-26T19:03:19.079Z,15.2
2017-07-26T19:04:27.128Z,15.2
2017-07-26T19:05:35.289Z,15.1
2017-07-26T19:06:43.217Z,15.1
2017-07-26T19:07:51.581Z,15.0
2017-07-26T19:08:59.309Z,14.9
2017-07-26T19:10:07.241Z,14.9
2017-07-26T19:11:15.470Z,14.9
2017-07-26T19:12:23.026Z,14.9
2017-07-26T19:13:31.224Z,14.8
2017-07-26T19:14:39.087Z,14.8
2017-07-26T19:15:47.050Z,14.7
2017-07-26T19:16:54.940Z,14.8
2017-07-26T19:18:02.626Z,14.8
2017-07-26T19:19:10.862Z,14.8
2017-07-26T19:20:18.717Z,14.7
2017-07-26T19:21:26.579Z,14.7
2017-07-26T19:22:34.321Z,14.8
2017-07-26T19:23:42.559Z,14.7
2017-07-26T19:24:50.325Z,14.7
2017-07-26T19:25:58.873Z,14.8
2017-07-26T19:27:06.405Z,14.9
2017-07-26T19:28:14.545Z,15.0
2017-07-26T19:29:22.573Z,15.0
2017-07-26T19:30:30.678Z,15.0
2017-07-26T19:31:38.717Z,15.0
2017-07-26T19:32:46.940Z,14.9
2017-07-26T19:33:54.609Z,14.8
2017-07-26T19:35:03.626Z,14.9
2017-07-26T19:36:11.675Z,14.9
2017-07-26T19:37:19.918Z,15.1
2017-07-26T19:38:27.737Z,15.3
2017-07-26T19:39:35.901Z,15.5
2017-07-26T19:40:43.802Z,15.5
2017-07-26T19:41:52.085Z,15.6
2017-07-26T19:43:00.452Z,15.5
2017-07-26T19:44:08.090Z,15.5
2017-07-26T19:45:16.151Z,15.4
2017-07-26T19:46:23.837Z,15.3
2017-07-26T19:47:31.622Z,15.3
2017-07-26T19:48:39.638Z,15.2
2017-07-26T19:49:47.248Z,15.0
2017-07-26T19:50:55.545Z,15.1
2017-07-26T19:52:03.727Z,15.0
2017-07-26T19:53:11.355Z,15.1
2017-07-26T19:54:19.450Z,15.1
2017-07-26T19:55:27.196Z,15.2
2017-07-26T19:56:35.241Z,15.3
2017-07-26T19:57:43.406Z,15.6
2017-07-26T19:58:51.111Z,15.6
2017-07-26T19:59:58.805Z,15.7
2017-07-26T20:01:07.083Z,15.7
2017-07-26T20:02:15.054Z,15.7
2017-07-26T20:03:23.442Z,15.9
2017-07-26T20:04:31.510Z,16.0
2017-07-26T20:05:39.469Z,16.1
2017-07-26T20:06:47.649Z,16.1
2017-07-26T20:07:55.921Z,16.2
2017-07-26T20:09:03.681Z,16.0
2017-07-26T20:10:11.552Z,15.9
2017-07-26T20:11:19.682Z,15.8
2017-07-26T20:12:22.887Z,15.8
2017-07-26T20:13:25.452Z,15.8
2017-07-26T20:14:27.920Z,15.8
2017-07-26T20:15:30.393Z,15.9
2017-07-26T20:16:32.875Z,15.9
2017-07-26T20:17:35.336Z,15.9
2017-07-26T20:18:37.881Z,15.9
2017-07-26T20:19:40.379Z,16.0
2017-07-26T20:20:42.828Z,16.0
2017-07-26T20:21:45.274Z,16.1
2017-07-26T20:22:47.740Z,16.2
2017-07-26T20:23:50.296Z,16.2
2017-07-26T20:24:52.763Z,16.2
2017-07-26T20:25:55.225Z,16.2
2017-07-26T20:26:57.691Z,16.2
2017-07-26T20:28:00.133Z,16.1
2017-07-26T20:29:02.686Z,16.1
2017-07-26T20:30:05.185Z,16.0
2017-07-26T20:31:07.650Z,16.0
2017-07-26T20:32:10.132Z,16.0
2017-07-26T20:33:12.619Z,15.8
2017-07-26T20:34:15.283Z,15.7
2017-07-26T20:35:17.728Z,15.5
2017-07-26T20:36:20.215Z,15.5
2017-07-26T20:37:22.649Z,15.5
2017-07-26T20:38:25.096Z,15.4
2017-07-26T20:39:27.640Z,15.3
2017-07-26T20:40:30.106Z,15.3
2017-07-26T20:41:32.595Z,15.3
2017-07-26T20:42:35.048Z,15.3